Time;durP1;ratioP1;P1;durP2;ratioP2;P2;SDS_P1;SDS_P2;PMS_P1;PMS_P2;Temp;Humidity;BMP_temperature;BMP_pressure;BME280_temperature;BME280_humidity;BME280_pressure;Samples;Min_cycle;Max_cycle;Signal;HPM_P1;HPM_P2
2023/04/20 00:00:14;;;;;;;19.80;18.20;;;3.40;99.90;;;;;;4887050;29;20232;-78
2023/04/20 00:02:41;;;;;;;18.77;17.20;;;3.50;99.90;;;;;;4883953;29;20689;-76
2023/04/20 00:05:09;;;;;;;19.50;17.90;;;3.40;99.90;;;;;;4885078;29;20273;-77
2023/04/20 00:07:36;;;;;;;19.03;17.63;;;3.40;99.90;;;;;;4896609;29;20224;-77
2023/04/20 00:10:03;;;;;;;20.40;18.70;;;3.40;99.90;;;;;;4886205;29;20213;-77
2023/04/20 00:12:32;;;;;;;18.90;17.47;;;3.30;99.90;;;;;;4885949;29;20282;-78
2023/04/20 00:14:58;;;;;;;18.57;17.07;;;3.40;99.90;;;;;;4886710;29;20236;-78
2023/04/20 00:17:25;;;;;;;19.43;17.63;;;3.30;99.90;;;;;;4886340;29;20732;-77
2023/04/20 00:19:52;;;;;;;19.30;17.80;;;3.20;99.90;;;;;;4884502;29;20232;-77
2023/04/20 00:22:19;;;;;;;19.73;18.03;;;3.20;99.90;;;;;;4899779;29;20714;-77
2023/04/20 00:24:46;;;;;;;19.67;18.13;;;3.20;99.90;;;;;;4890760;29;20208;-77
2023/04/20 00:27:13;;;;;;;19.07;17.57;;;3.10;99.90;;;;;;4885118;29;20225;-77
2023/04/20 00:29:41;;;;;;;21.10;19.37;;;3.10;99.90;;;;;;4886650;29;20213;-78
2023/04/20 00:32:08;;;;;;;18.53;16.93;;;3.10;99.90;;;;;;4892335;29;20296;-77
2023/04/20 00:34:34;;;;;;;20.60;18.90;;;3.10;99.90;;;;;;4880975;29;20267;-76
2023/04/20 00:37:01;;;;;;;19.60;18.00;;;3.00;99.90;;;;;;4886978;29;20225;-77
2023/04/20 00:39:28;;;;;;;19.37;17.83;;;3.00;99.90;;;;;;4883408;29;20320;-78
2023/04/20 00:42:03;;;;;;;18.73;17.27;;;3.00;99.90;;;;;;4884093;29;20228;-77
2023/04/20 00:44:29;;;;;;;19.77;18.13;;;2.90;99.90;;;;;;4882046;29;20212;-77
2023/04/20 00:46:57;;;;;;;19.13;17.63;;;2.90;99.90;;;;;;4884215;29;20716;-77
2023/04/20 00:49:28;;;;;;;19.77;18.17;;;2.80;99.90;;;;;;4885216;29;20209;-77
2023/04/20 00:51:55;;;;;;;19.60;18.03;;;2.80;99.90;;;;;;4885846;29;20669;-78
2023/04/20 00:54:25;;;;;;;20.23;18.53;;;2.70;99.90;;;;;;4887256;29;20304;-77
2023/04/20 00:56:52;;;;;;;19.10;17.50;;;2.70;99.90;;;;;;4910302;29;20755;-77
2023/04/20 00:59:20;;;;;;;18.63;17.23;;;2.60;99.90;;;;;;4893917;29;20204;-77
2023/04/20 01:01:47;;;;;;;18.63;17.23;;;2.60;99.90;;;;;;4879955;29;20454;-77
2023/04/20 01:04:16;;;;;;;18.73;17.17;;;2.50;99.90;;;;;;4884123;29;20205;-77
2023/04/20 01:06:43;;;;;;;19.23;17.53;;;2.50;99.90;;;;;;4886581;29;20538;-79
2023/04/20 01:09:11;;;;;;;19.40;17.80;;;2.50;99.90;;;;;;4886361;29;20458;-77
2023/04/20 01:11:38;;;;;;;18.33;16.87;;;2.50;99.90;;;;;;4888262;29;20197;-77
2023/04/20 01:14:05;;;;;;;19.90;18.30;;;2.50;99.90;;;;;;4883013;29;20197;-78
2023/04/20 01:16:33;;;;;;;19.30;17.50;;;2.50;99.90;;;;;;4882402;29;20311;-77
2023/04/20 01:19:00;;;;;;;18.93;17.40;;;2.50;99.90;;;;;;4883030;29;20450;-77
2023/04/20 01:21:28;;;;;;;18.83;17.30;;;2.50;99.90;;;;;;4889015;29;20230;-77
2023/04/20 01:23:56;;;;;;;19.50;17.93;;;2.40;99.90;;;;;;4894048;29;20225;-77
2023/04/20 01:26:25;;;;;;;19.90;18.30;;;2.40;99.90;;;;;;4890214;29;20220;-77
2023/04/20 01:28:52;;;;;;;18.43;17.10;;;2.40;99.90;;;;;;4887302;29;20580;-78
2023/04/20 01:31:19;;;;;;;16.83;15.40;;;2.40;99.90;;;;;;4886146;29;20264;-76
2023/04/20 01:33:46;;;;;;;16.67;15.27;;;2.50;99.90;;;;;;4885203;29;20209;-78
2023/04/20 01:36:13;;;;;;;16.13;14.80;;;2.40;99.90;;;;;;4887095;29;20214;-77
2023/04/20 01:38:40;;;;;;;16.37;14.87;;;2.40;99.90;;;;;;4900998;29;20887;-77
2023/04/20 01:41:09;;;;;;;19.10;17.03;;;2.30;99.90;;;;;;4882712;29;20460;-77
2023/04/20 01:43:38;;;;;;;18.43;16.90;;;2.30;99.90;;;;;;4887090;29;20204;-77
2023/04/20 01:46:05;;;;;;;18.60;17.10;;;2.30;99.90;;;;;;4888607;29;20271;-77
2023/04/20 01:48:32;;;;;;;18.13;16.63;;;2.20;99.90;;;;;;4887666;29;20454;-77
2023/04/20 01:50:59;;;;;;;17.90;16.60;;;2.10;99.90;;;;;;4883745;29;20205;-80
2023/04/20 01:53:26;;;;;;;18.17;16.63;;;2.10;99.90;;;;;;4886022;29;20464;-77
2023/04/20 01:55:53;;;;;;;17.77;16.37;;;2.00;99.90;;;;;;4890435;29;20205;-77
2023/04/20 01:58:24;;;;;;;18.93;17.47;;;2.00;99.90;;;;;;4887921;29;20637;-77
2023/04/20 02:00:50;;;;;;;19.07;17.60;;;2.10;99.90;;;;;;4889798;29;20465;-77
2023/04/20 02:03:17;;;;;;;19.57;18.07;;;2.10;99.90;;;;;;4888998;29;21031;-79
2023/04/20 02:05:44;;;;;;;18.40;17.03;;;2.00;99.90;;;;;;4898680;29;20211;-77
2023/04/20 02:08:11;;;;;;;19.57;17.77;;;2.00;99.90;;;;;;4884100;29;20863;-77
2023/04/20 02:10:39;;;;;;;18.93;17.50;;;2.00;99.90;;;;;;4884575;29;20556;-76
2023/04/20 02:13:06;;;;;;;19.00;17.53;;;2.00;99.90;;;;;;4888534;29;20208;-77
2023/04/20 02:15:34;;;;;;;18.00;16.70;;;2.00;99.90;;;;;;4889065;29;20441;-79
2023/04/20 02:18:02;;;;;;;19.03;17.43;;;1.90;99.90;;;;;;4890061;29;20225;-79
2023/04/20 02:20:29;;;;;;;18.63;17.13;;;1.90;99.90;;;;;;4886253;29;21044;-79
2023/04/20 02:22:56;;;;;;;19.80;18.10;;;1.90;99.90;;;;;;4897333;29;20453;-79
2023/04/20 02:25:23;;;;;;;19.40;17.87;;;1.90;99.90;;;;;;4886801;29;20508;-79
2023/04/20 02:27:50;;;;;;;19.67;18.07;;;1.90;99.90;;;;;;4884815;29;20237;-80
2023/04/20 02:30:16;;;;;;;18.53;16.93;;;1.90;99.90;;;;;;4886892;29;20879;-78
2023/04/20 02:32:45;;;;;;;18.67;17.20;;;1.90;99.90;;;;;;4889321;29;20216;-79
2023/04/20 02:35:11;;;;;;;18.97;17.47;;;1.90;99.90;;;;;;4887522;29;20208;-79
2023/04/20 02:37:38;;;;;;;19.27;17.60;;;1.90;99.90;;;;;;4886240;29;20285;-79
2023/04/20 02:40:07;;;;;;;18.67;17.23;;;1.90;99.90;;;;;;4887755;29;20629;-79
2023/04/20 02:42:34;;;;;;;18.83;17.33;;;1.90;99.90;;;;;;4890112;29;20467;-79
2023/04/20 02:45:04;;;;;;;17.63;16.30;;;1.90;99.90;;;;;;4886779;29;20501;-79
2023/04/20 02:47:31;;;;;;;18.27;16.87;;;1.80;99.90;;;;;;4887318;29;20567;-79
2023/04/20 02:49:59;;;;;;;18.10;16.70;;;1.70;99.90;;;;;;4897381;29;20472;-79
2023/04/20 02:52:26;;;;;;;18.90;17.40;;;1.70;99.90;;;;;;4885497;29;20836;-81
2023/04/20 02:54:56;;;;;;;17.90;16.47;;;1.80;99.90;;;;;;4894540;29;21014;-78
2023/04/20 02:57:24;;;;;;;18.80;17.17;;;1.70;99.90;;;;;;4900053;29;20540;-82
2023/04/20 02:59:51;;;;;;;18.90;17.30;;;1.70;99.90;;;;;;4897882;29;20831;-82
2023/04/20 03:02:24;;;;;;;19.30;17.83;;;1.60;99.90;;;;;;4904905;29;20485;-81
2023/04/20 03:04:52;;;;;;;19.20;17.60;;;1.60;99.90;;;;;;4898782;29;20458;-81
2023/04/20 03:07:22;;;;;;;18.97;17.50;;;1.60;99.90;;;;;;4899548;29;20479;-80
2023/04/20 03:09:49;;;;;;;18.50;17.00;;;1.60;99.90;;;;;;4899336;29;20459;-80
2023/04/20 03:12:25;;;;;;;19.33;17.80;;;1.60;99.90;;;;;;4899838;29;20517;-82
2023/04/20 03:15:18;;;;;;;18.70;17.27;;;1.70;99.90;;;;;;4893935;29;20467;-82
2023/04/20 03:18:05;;;;;;;18.17;16.87;;;1.70;99.90;;;;;;4900332;29;20553;-82
2023/04/20 03:20:32;;;;;;;19.33;17.83;;;1.80;99.90;;;;;;4893259;29;20514;-79
2023/04/20 03:23:00;;;;;;;18.87;17.27;;;1.80;99.90;;;;;;4899746;29;20448;-81
2023/04/20 03:25:28;;;;;;;20.43;18.67;;;1.80;99.90;;;;;;4892321;29;21152;-82
2023/04/20 03:27:58;;;;;;;20.90;19.10;;;1.90;99.90;;;;;;4887965;29;20465;-82
2023/04/20 03:30:26;;;;;;;20.40;18.80;;;1.90;99.90;;;;;;4887106;29;20460;-81
2023/04/20 03:32:59;;;;;;;20.73;18.90;;;1.90;99.90;;;;;;4888075;29;20512;-81
2023/04/20 03:35:26;;;;;;;19.70;18.10;;;2.00;99.90;;;;;;4910705;29;20214;-81
2023/04/20 03:37:53;;;;;;;18.83;17.43;;;1.90;99.90;;;;;;4889219;29;20505;-80
2023/04/20 03:40:21;;;;;;;20.03;18.37;;;2.00;99.90;;;;;;4892958;29;20452;-79
2023/04/20 03:42:48;;;;;;;20.50;18.53;;;2.00;99.90;;;;;;4897845;29;20460;-82
2023/04/20 03:45:16;;;;;;;19.33;17.83;;;2.10;99.90;;;;;;4885015;29;20192;-80
2023/04/20 03:47:43;;;;;;;20.97;19.37;;;2.10;99.90;;;;;;4894867;29;20224;-79
2023/04/20 03:50:11;;;;;;;20.60;19.00;;;2.20;99.90;;;;;;4894730;29;20204;-79
2023/04/20 03:52:39;;;;;;;19.57;18.07;;;2.20;99.90;;;;;;4888011;29;20208;-80
2023/04/20 03:55:07;;;;;;;21.23;19.53;;;2.20;99.90;;;;;;4885010;29;20233;-78
2023/04/20 03:57:38;;;;;;;23.17;21.37;;;2.30;99.90;;;;;;4888153;29;20327;-80
2023/04/20 04:00:08;;;;;;;20.67;19.07;;;2.30;99.90;;;;;;4881982;29;20696;-79
2023/04/20 04:02:44;;;;;;;20.77;19.27;;;2.20;99.90;;;;;;4884882;29;20436;-81
2023/04/20 04:05:12;;;;;;;21.87;20.27;;;2.20;99.90;;;;;;4885828;29;21020;-79
2023/04/20 04:07:39;;;;;;;21.97;20.27;;;2.20;99.90;;;;;;4885885;29;21013;-78
2023/04/20 04:10:07;;;;;;;22.23;20.23;;;2.20;99.90;;;;;;4884565;29;20209;-79
2023/04/20 04:12:34;;;;;;;22.03;20.27;;;2.20;99.90;;;;;;4883429;29;20205;-80
2023/04/20 04:15:03;;;;;;;22.03;20.33;;;2.20;99.90;;;;;;4897776;29;20196;-79
2023/04/20 04:17:34;;;;;;;22.07;20.30;;;2.10;99.90;;;;;;4889890;29;20224;-79
2023/04/20 04:20:01;;;;;;;22.87;20.73;;;2.10;99.90;;;;;;4888687;29;20198;-79
2023/04/20 04:22:28;;;;;;;23.80;21.90;;;2.10;99.90;;;;;;4899023;29;20204;-79
2023/04/20 04:25:15;;;;;;;22.73;20.97;;;2.20;99.90;;;;;;4899854;29;20219;-81
2023/04/20 04:27:45;;;;;;;22.80;21.10;;;2.20;99.90;;;;;;4881194;29;20485;-78
2023/04/20 04:30:14;;;;;;;22.70;20.90;;;2.10;99.90;;;;;;4879203;29;20743;-79
2023/04/20 04:32:43;;;;;;;22.93;21.13;;;2.10;99.90;;;;;;4885546;29;21053;-78
2023/04/20 04:35:11;;;;;;;24.20;22.30;;;2.10;99.90;;;;;;4883752;29;20536;-78
2023/04/20 04:37:38;;;;;;;22.33;20.73;;;2.10;99.90;;;;;;4887626;29;20711;-78
2023/04/20 04:40:07;;;;;;;24.37;22.47;;;2.10;99.90;;;;;;4890377;29;20208;-80
2023/04/20 04:42:36;;;;;;;25.47;23.47;;;2.10;99.90;;;;;;4896936;29;20201;-79
2023/04/20 04:45:06;;;;;;;25.33;23.13;;;2.10;99.90;;;;;;4896182;29;20448;-78
2023/04/20 04:47:36;;;;;;;24.80;22.70;;;2.10;99.90;;;;;;4885174;29;20509;-80
2023/04/20 04:50:04;;;;;;;24.83;22.83;;;2.00;99.90;;;;;;4896245;29;20587;-78
2023/04/20 04:52:32;;;;;;;23.60;21.70;;;2.00;99.90;;;;;;4908876;29;20445;-76
2023/04/20 04:54:59;;;;;;;24.47;22.47;;;2.00;99.90;;;;;;4888807;29;20205;-78
2023/04/20 04:57:26;;;;;;;23.83;21.83;;;2.00;99.90;;;;;;4884661;29;20229;-77
2023/04/20 04:59:52;;;;;;;23.20;21.20;;;2.00;99.90;;;;;;4888507;29;20252;-77
2023/04/20 05:02:19;;;;;;;25.37;23.37;;;2.00;99.90;;;;;;4883838;29;20197;-77
2023/04/20 05:04:47;;;;;;;24.07;22.17;;;2.10;99.90;;;;;;4888206;29;20624;-80
2023/04/20 05:07:14;;;;;;;24.53;22.53;;;2.10;99.90;;;;;;4890542;29;20228;-79
2023/04/20 05:09:41;;;;;;;24.07;22.03;;;2.10;99.90;;;;;;4888739;29;20197;-77
2023/04/20 05:12:08;;;;;;;23.87;21.87;;;2.30;99.90;;;;;;4888431;29;20203;-77
2023/04/20 05:14:35;;;;;;;22.47;20.77;;;2.30;99.90;;;;;;4888984;29;20269;-76
2023/04/20 05:17:02;;;;;;;21.27;19.67;;;2.30;99.90;;;;;;4887932;29;20229;-77
2023/04/20 05:19:29;;;;;;;22.63;20.93;;;2.40;99.90;;;;;;4883100;29;20232;-78
2023/04/20 05:21:57;;;;;;;22.53;20.63;;;2.40;99.90;;;;;;4892241;29;20209;-80
2023/04/20 05:24:24;;;;;;;21.43;19.83;;;2.50;99.90;;;;;;4887565;29;20201;-80
2023/04/20 05:26:51;;;;;;;22.50;20.70;;;2.60;99.90;;;;;;4885353;29;20232;-77
2023/04/20 05:29:18;;;;;;;22.40;20.50;;;2.70;99.90;;;;;;4886747;29;20198;-76
2023/04/20 05:31:45;;;;;;;23.07;21.17;;;2.80;99.90;;;;;;4887345;29;20246;-76
2023/04/20 05:34:11;;;;;;;22.50;20.70;;;3.00;99.90;;;;;;4883484;29;20206;-76
2023/04/20 05:36:40;;;;;;;22.77;21.03;;;3.30;99.90;;;;;;4892840;29;20724;-76
2023/04/20 05:39:09;;;;;;;22.13;20.33;;;3.60;99.90;;;;;;4891679;29;20220;-76
2023/04/20 05:41:36;;;;;;;21.93;20.17;;;3.70;99.90;;;;;;4889460;29;20208;-76
2023/04/20 05:44:02;;;;;;;21.17;19.47;;;3.70;99.90;;;;;;4886224;29;20236;-76
2023/04/20 05:46:30;;;;;;;20.63;19.03;;;3.80;99.90;;;;;;4882844;29;20217;-76
2023/04/20 05:48:56;;;;;;;20.93;19.07;;;3.80;99.90;;;;;;4885887;29;20205;-76
2023/04/20 05:51:27;;;;;;;20.13;18.63;;;3.70;99.90;;;;;;4882701;29;20224;-76
2023/04/20 05:53:54;;;;;;;20.20;18.60;;;3.70;99.90;;;;;;4885216;29;20270;-77
2023/04/20 05:56:22;;;;;;;19.50;17.97;;;3.80;99.90;;;;;;4886985;29;20287;-79
2023/04/20 05:58:49;;;;;;;20.17;18.67;;;4.10;99.90;;;;;;4884010;29;20224;-79
2023/04/20 06:01:16;;;;;;;20.13;18.63;;;4.20;99.90;;;;;;4880618;29;20212;-84
2023/04/20 06:03:43;;;;;;;20.07;18.57;;;4.20;99.90;;;;;;4880859;29;20197;-79
2023/04/20 06:06:09;;;;;;;19.57;18.07;;;4.30;99.90;;;;;;4884613;29;20206;-81
2023/04/20 06:08:36;;;;;;;20.33;18.63;;;4.40;99.90;;;;;;4892823;29;20555;-80
2023/04/20 06:11:03;;;;;;;20.00;18.57;;;4.50;99.90;;;;;;4887109;29;20205;-76
2023/04/20 06:13:31;;;;;;;19.93;18.43;;;4.50;99.90;;;;;;4887054;29;20205;-75
2023/04/20 06:15:58;;;;;;;18.67;17.37;;;4.30;99.90;;;;;;4887690;29;20212;-83
2023/04/20 06:18:25;;;;;;;19.93;18.53;;;4.20;99.90;;;;;;4885132;29;20254;-77
2023/04/20 06:20:52;;;;;;;19.77;18.20;;;4.10;99.90;;;;;;4888150;29;20199;-77
2023/04/20 06:23:18;;;;;;;19.90;18.40;;;4.20;99.90;;;;;;4886088;29;20669;-76
2023/04/20 06:25:45;;;;;;;19.03;17.57;;;4.20;99.90;;;;;;4890849;29;20644;-79
2023/04/20 06:28:12;;;;;;;19.30;17.80;;;4.40;99.90;;;;;;4886313;29;20712;-82
2023/04/20 06:30:40;;;;;;;18.60;17.27;;;4.50;99.90;;;;;;4885713;29;20204;-78
2023/04/20 06:33:07;;;;;;;18.60;17.20;;;4.50;99.90;;;;;;4880480;29;20197;-76
2023/04/20 06:35:34;;;;;;;18.23;16.93;;;4.50;99.90;;;;;;4890674;29;20201;-78
2023/04/20 06:38:01;;;;;;;17.97;16.70;;;4.60;99.90;;;;;;4883112;29;20232;-76
2023/04/20 06:40:28;;;;;;;18.83;17.33;;;4.50;99.90;;;;;;4885328;29;20226;-76
2023/04/20 06:42:56;;;;;;;19.23;17.50;;;4.50;99.90;;;;;;4882530;29;20216;-81
2023/04/20 06:45:23;;;;;;;19.30;17.80;;;4.40;99.90;;;;;;4885083;29;20589;-83
2023/04/20 06:47:51;;;;;;;18.80;17.40;;;4.30;99.90;;;;;;4888173;29;20237;-81
2023/04/20 06:50:18;;;;;;;19.20;17.60;;;4.30;99.90;;;;;;4888300;29;20212;-81
2023/04/20 06:52:47;;;;;;;18.63;17.23;;;4.30;99.90;;;;;;4893084;29;20220;-80
2023/04/20 06:55:13;;;;;;;18.50;17.10;;;4.20;99.90;;;;;;4890772;29;20209;-82
2023/04/20 06:57:42;;;;;;;20.30;18.57;;;4.20;99.90;;;;;;4907750;23;20756;-77
2023/04/20 07:00:11;;;;;;;24.03;21.90;;;4.10;99.90;;;;;;4879853;29;20221;-78
2023/04/20 07:02:45;;;;;;;21.20;19.23;;;4.10;99.90;;;;;;4887066;29;20265;-77
2023/04/20 07:05:13;;;;;;;20.20;18.50;;;4.10;99.90;;;;;;4879125;29;20257;-78
2023/04/20 07:07:41;;;;;;;20.03;18.33;;;4.10;99.90;;;;;;4874922;29;20225;-78
2023/04/20 07:10:09;;;;;;;20.17;18.47;;;4.20;99.90;;;;;;4867765;29;20206;-77
2023/04/20 07:12:36;;;;;;;19.07;17.40;;;4.20;99.90;;;;;;4865820;29;20231;-77
2023/04/20 07:15:04;;;;;;;19.77;18.00;;;4.20;99.90;;;;;;4866785;29;20288;-78
2023/04/20 07:17:31;;;;;;;18.80;17.43;;;4.20;99.90;;;;;;4864612;29;20303;-78
2023/04/20 07:20:04;;;;;;;18.47;17.07;;;4.10;99.90;;;;;;4863993;29;20253;-78
2023/04/20 07:22:32;;;;;;;18.83;17.30;;;4.10;99.90;;;;;;4866803;29;20261;-79
2023/04/20 07:25:00;;;;;;;19.90;18.27;;;4.20;99.90;;;;;;4862033;29;20214;-79
2023/04/20 07:27:28;;;;;;;20.27;18.50;;;4.20;99.90;;;;;;4867403;29;20574;-79
2023/04/20 07:29:55;;;;;;;18.57;17.13;;;4.30;99.90;;;;;;4866850;29;20209;-79
2023/04/20 07:32:22;;;;;;;18.93;17.53;;;4.40;99.90;;;;;;4865480;29;20201;-78
2023/04/20 07:34:49;;;;;;;19.80;18.30;;;4.50;99.90;;;;;;4867246;29;20269;-78
2023/04/20 07:37:16;;;;;;;18.97;17.47;;;4.50;99.90;;;;;;4863909;29;20285;-79
2023/04/20 07:39:44;;;;;;;19.43;17.90;;;4.60;99.90;;;;;;4870503;29;20219;-79
2023/04/20 07:42:10;;;;;;;18.83;17.43;;;4.70;99.90;;;;;;4863624;29;20217;-78
2023/04/20 07:44:37;;;;;;;19.10;17.50;;;4.70;99.90;;;;;;4862273;29;20202;-78
2023/04/20 07:47:04;;;;;;;19.87;18.17;;;4.80;99.90;;;;;;4866502;29;20791;-78
2023/04/20 07:49:31;;;;;;;19.83;18.17;;;4.90;99.90;;;;;;4868247;29;20193;-79
2023/04/20 07:51:58;;;;;;;19.10;17.60;;;4.80;99.90;;;;;;4873290;29;20206;-79
2023/04/20 07:54:25;;;;;;;18.97;17.53;;;4.80;99.90;;;;;;4867797;29;20582;-78
2023/04/20 07:56:53;;;;;;;19.23;17.73;;;4.70;99.90;;;;;;4877394;29;20816;-78
2023/04/20 07:59:20;;;;;;;19.53;17.80;;;4.70;99.90;;;;;;4878161;29;20317;-78
2023/04/20 08:01:47;;;;;;;18.63;17.13;;;4.70;99.90;;;;;;4864337;29;20206;-78
2023/04/20 08:04:14;;;;;;;18.90;17.40;;;4.70;99.90;;;;;;4867047;29;20202;-78
2023/04/20 08:06:41;;;;;;;19.47;17.80;;;4.70;99.90;;;;;;4866086;29;20294;-78
2023/04/20 08:09:08;;;;;;;20.27;18.47;;;4.60;99.90;;;;;;4869609;29;20202;-78
2023/04/20 08:11:35;;;;;;;20.40;18.80;;;4.60;99.90;;;;;;4867753;29;20201;-78
2023/04/20 08:14:03;;;;;;;20.83;19.03;;;4.60;99.90;;;;;;4866300;29;20213;-78
2023/04/20 08:16:30;;;;;;;19.47;17.83;;;4.60;99.90;;;;;;4863753;29;20657;-77
2023/04/20 08:18:56;;;;;;;19.70;18.20;;;4.70;99.90;;;;;;4866258;29;20300;-78
2023/04/20 08:21:23;;;;;;;22.60;20.60;;;4.80;99.90;;;;;;4872572;29;20202;-78
2023/04/20 08:23:50;;;;;;;19.83;18.13;;;4.80;99.90;;;;;;4862445;29;20638;-81
2023/04/20 08:26:17;;;;;;;19.33;17.77;;;4.80;99.90;;;;;;4866002;29;20203;-78
2023/04/20 08:28:44;;;;;;;20.67;19.07;;;4.90;99.90;;;;;;4866260;29;20226;-78
2023/04/20 08:31:13;;;;;;;19.80;18.20;;;4.90;99.90;;;;;;4867373;29;20208;-79
2023/04/20 08:33:40;;;;;;;19.87;18.27;;;5.00;99.90;;;;;;4865104;29;20554;-77
2023/04/20 08:36:07;;;;;;;20.50;18.80;;;5.10;99.90;;;;;;4873968;29;20662;-76
2023/04/20 08:38:34;;;;;;;19.97;18.47;;;5.20;99.90;;;;;;4862613;29;20290;-79
2023/04/20 08:41:01;;;;;;;20.23;18.63;;;5.30;99.90;;;;;;4862007;29;20235;-78
2023/04/20 08:43:28;;;;;;;20.30;18.60;;;5.40;99.90;;;;;;4865896;29;20893;-77
2023/04/20 08:45:58;;;;;;;19.43;17.90;;;5.70;99.90;;;;;;4875089;29;20213;-79
2023/04/20 08:48:33;;;;;;;18.80;17.30;;;5.80;99.90;;;;;;4873870;29;20603;-77
2023/04/20 08:51:01;;;;;;;19.30;17.80;;;5.90;99.90;;;;;;4874815;29;20203;-78
2023/04/20 08:53:28;;;;;;;20.27;18.57;;;5.90;99.90;;;;;;4873145;29;20210;-77
2023/04/20 08:55:55;;;;;;;19.03;17.47;;;6.00;99.90;;;;;;4874263;29;20212;-79
2023/04/20 08:58:23;;;;;;;19.13;17.63;;;6.10;99.90;;;;;;4873285;29;20266;-83
2023/04/20 09:00:50;;;;;;;19.57;17.87;;;6.20;99.90;;;;;;4873654;29;20235;-80
2023/04/20 09:03:17;;;;;;;18.93;17.30;;;6.30;99.90;;;;;;4875628;29;20282;-79
2023/04/20 09:05:45;;;;;;;18.73;17.13;;;6.20;99.90;;;;;;4876083;29;20252;-78
2023/04/20 09:08:12;;;;;;;18.37;16.67;;;6.30;99.90;;;;;;4889495;29;20232;-77
2023/04/20 09:10:41;;;;;;;18.57;16.97;;;6.40;99.90;;;;;;4876004;29;20260;-77
2023/04/20 09:13:08;;;;;;;19.03;17.50;;;6.50;99.90;;;;;;4888700;29;20649;-78
2023/04/20 09:15:35;;;;;;;19.23;17.43;;;6.70;99.90;;;;;;4889711;29;20220;-77
2023/04/20 09:18:13;;;;;;;19.40;17.50;;;6.70;99.90;;;;;;4873935;29;20239;-77
2023/04/20 09:20:40;;;;;;;19.27;17.57;;;6.80;99.90;;;;;;4875428;29;20227;-78
2023/04/20 09:23:15;;;;;;;20.10;18.40;;;7.00;99.90;;;;;;4875865;29;20236;-78
2023/04/20 09:25:45;;;;;;;19.90;18.10;;;7.20;99.90;;;;;;4876217;29;20208;-77
2023/04/20 09:28:13;;;;;;;19.93;18.10;;;7.30;99.90;;;;;;4874415;29;20730;-78
2023/04/20 09:30:41;;;;;;;19.73;18.10;;;7.50;99.90;;;;;;4876302;29;20785;-78
2023/04/20 09:33:10;;;;;;;19.63;17.97;;;7.60;99.90;;;;;;4868887;29;20620;-78
2023/04/20 09:35:39;;;;;;;20.30;18.70;;;7.60;99.90;;;;;;4861559;29;20206;-79
2023/04/20 09:38:06;;;;;;;19.90;18.10;;;7.50;99.90;;;;;;4865626;29;20221;-77
2023/04/20 09:40:35;;;;;;;19.13;17.53;;;7.40;99.90;;;;;;4866859;29;20222;-78
2023/04/20 09:43:07;;;;;;;19.03;17.43;;;7.40;99.90;;;;;;4865431;29;20258;-81
2023/04/20 09:45:34;;;;;;;19.77;17.97;;;7.50;99.90;;;;;;4880021;29;20209;-79
2023/04/20 09:48:04;;;;;;;18.60;17.10;;;7.60;99.90;;;;;;4885084;29;20219;-80
2023/04/20 09:50:32;;;;;;;20.10;18.30;;;7.50;99.90;;;;;;4882498;29;20690;-79
2023/04/20 09:53:00;;;;;;;19.30;17.60;;;7.60;99.90;;;;;;4883232;29;20582;-79
2023/04/20 09:55:30;;;;;;;19.50;17.90;;;7.60;99.90;;;;;;4867839;29;20210;-78
2023/04/20 09:57:58;;;;;;;19.53;17.93;;;7.70;99.90;;;;;;4881580;29;20251;-79
2023/04/20 10:00:25;;;;;;;19.73;18.13;;;7.70;99.90;;;;;;4882732;29;20596;-77
2023/04/20 10:02:52;;;;;;;19.10;17.50;;;7.80;99.90;;;;;;4874818;29;20198;-78
2023/04/20 10:05:21;;;;;;;19.67;17.87;;;8.10;99.90;;;;;;4870755;29;20202;-78
2023/04/20 10:07:58;;;;;;;19.80;18.13;;;8.00;99.90;;;;;;4873049;29;20223;-78
2023/04/20 10:10:25;;;;;;;18.53;17.03;;;8.10;99.90;;;;;;4872278;29;20205;-78
2023/04/20 10:12:54;;;;;;;19.90;18.13;;;8.00;99.90;;;;;;4878217;29;20209;-78
2023/04/20 10:15:23;;;;;;;19.13;17.67;;;7.80;99.90;;;;;;4878148;29;20271;-78
2023/04/20 10:17:51;;;;;;;19.03;17.53;;;7.70;99.90;;;;;;4869096;29;20238;-83
2023/04/20 10:20:19;;;;;;;19.57;17.87;;;7.60;99.90;;;;;;4865868;29;20291;-78
2023/04/20 10:22:46;;;;;;;19.50;17.83;;;7.60;99.90;;;;;;4873878;29;20198;-78
2023/04/20 13:42:53;;;;;;;14.60;13.70;;;8.30;99.90;;;;;;5129790;27;20548;-77
2023/04/20 13:45:21;;;;;;;14.57;13.57;;;8.40;99.90;;;;;;5110365;28;20270;-81
2023/04/20 13:47:48;;;;;;;13.40;12.50;;;8.30;99.90;;;;;;5094403;28;20735;-80
2023/04/20 13:50:15;;;;;;;13.77;12.97;;;8.10;99.90;;;;;;5107028;28;20718;-79
2023/04/20 13:52:42;;;;;;;14.03;13.13;;;8.20;99.90;;;;;;5109343;28;20303;-79
2023/04/20 13:55:09;;;;;;;14.73;13.73;;;8.20;99.90;;;;;;5107754;28;20193;-80
2023/04/20 13:57:36;;;;;;;14.40;13.50;;;8.10;99.90;;;;;;5108902;28;20280;-81
2023/04/20 14:00:05;;;;;;;14.70;13.50;;;8.10;99.90;;;;;;5109099;28;20250;-80
2023/04/20 14:02:32;;;;;;;16.73;15.53;;;8.10;99.90;;;;;;5109830;28;20248;-79
2023/04/20 14:04:59;;;;;;;14.97;14.07;;;8.10;99.90;;;;;;5110211;28;21213;-79
2023/04/20 14:07:26;;;;;;;15.33;14.33;;;7.90;99.90;;;;;;5110895;27;20197;-79
2023/04/20 14:09:55;;;;;;;15.80;14.80;;;7.80;99.90;;;;;;5108784;28;20562;-78
2023/04/20 14:12:22;;;;;;;14.70;13.63;;;7.90;99.90;;;;;;5107182;28;20739;-81
2023/04/20 14:14:49;;;;;;;15.88;14.75;;;7.90;99.90;;;;;;5108918;28;20353;-80
2023/04/20 14:17:17;;;;;;;16.27;15.17;;;7.80;99.90;;;;;;5109473;28;20217;-80
2023/04/20 14:19:43;;;;;;;14.90;13.90;;;7.80;99.90;;;;;;5107405;28;20270;-74
2023/04/20 14:22:10;;;;;;;16.93;15.23;;;7.90;99.90;;;;;;5108328;28;20217;-80
2023/04/20 14:24:37;;;;;;;16.37;15.30;;;7.90;99.90;;;;;;5109662;28;20194;-81
2023/04/20 14:27:04;;;;;;;15.87;14.77;;;8.00;99.90;;;;;;5113094;28;20212;-78
2023/04/20 14:29:31;;;;;;;15.10;14.10;;;7.90;99.90;;;;;;5101316;28;20326;-81
2023/04/20 14:31:57;;;;;;;15.40;14.40;;;8.00;99.90;;;;;;5106760;28;20216;-80
2023/04/20 14:34:26;;;;;;;15.27;14.27;;;8.00;99.90;;;;;;5107067;28;20205;-79
2023/04/20 14:36:52;;;;;;;15.57;14.57;;;8.00;99.90;;;;;;5108482;28;20193;-79
2023/04/20 14:39:19;;;;;;;15.23;14.13;;;7.90;99.90;;;;;;5111913;28;20215;-81
2023/04/20 14:41:46;;;;;;;16.87;15.43;;;7.80;99.90;;;;;;5109099;28;20357;-83
2023/04/20 14:44:13;;;;;;;16.77;15.47;;;7.80;99.90;;;;;;5094589;28;20197;-79
2023/04/20 14:46:40;;;;;;;16.30;15.10;;;7.80;99.90;;;;;;5096073;28;20285;-78
2023/04/20 14:49:07;;;;;;;18.20;16.47;;;7.90;99.90;;;;;;5095748;28;20217;-82
2023/04/20 14:51:35;;;;;;;17.63;16.23;;;7.80;99.90;;;;;;5101759;28;20189;-81
2023/04/20 14:54:02;;;;;;;17.90;16.60;;;7.80;99.90;;;;;;5096434;28;20198;-80
2023/04/20 14:56:29;;;;;;;16.73;15.57;;;7.70;99.90;;;;;;5097773;28;20194;-77
2023/04/20 14:58:58;;;;;;;16.87;15.57;;;7.60;99.90;;;;;;5100968;28;20204;-82
2023/04/20 15:01:25;;;;;;;16.77;15.60;;;7.60;99.90;;;;;;5095232;28;20218;-81
2023/04/20 15:03:51;;;;;;;17.77;16.57;;;7.60;99.90;;;;;;5089877;28;20213;-82
2023/04/20 15:06:18;;;;;;;18.00;16.70;;;7.60;99.90;;;;;;5101018;28;20657;-80
2023/04/20 15:08:46;;;;;;;19.23;17.83;;;7.50;99.90;;;;;;5101363;28;20193;-78
2023/04/20 15:11:13;;;;;;;17.83;16.63;;;7.50;99.90;;;;;;5101099;28;20194;-77
2023/04/20 15:13:41;;;;;;;17.93;16.67;;;7.50;99.90;;;;;;5100843;28;20240;-79
2023/04/20 15:16:08;;;;;;;17.43;16.20;;;7.50;99.90;;;;;;5100587;28;20189;-79
2023/04/20 15:18:35;;;;;;;17.87;16.67;;;7.50;99.90;;;;;;5097807;28;20225;-80
2023/04/20 15:21:02;;;;;;;18.43;17.13;;;7.60;99.90;;;;;;5096879;28;20266;-82
2023/04/20 15:23:29;;;;;;;18.50;17.20;;;7.60;99.90;;;;;;5094146;28;20225;-80
2023/04/20 15:25:57;;;;;;;18.40;17.07;;;7.60;99.90;;;;;;5097563;28;20225;-81
2023/04/20 15:28:24;;;;;;;17.90;16.63;;;7.60;99.90;;;;;;5097058;28;20266;-81
2023/04/20 15:30:50;;;;;;;18.67;17.37;;;7.60;99.90;;;;;;5097112;28;20242;-81
2023/04/20 15:33:17;;;;;;;17.40;16.20;;;7.70;99.90;;;;;;5097587;28;20237;-79
2023/04/20 15:35:44;;;;;;;17.97;16.77;;;7.80;99.90;;;;;;5097467;28;20216;-80
2023/04/20 15:38:11;;;;;;;20.00;18.53;;;7.80;99.90;;;;;;5090995;28;20208;-83
2023/04/20 15:40:38;;;;;;;19.67;17.83;;;7.90;99.90;;;;;;5089900;28;20271;-81
2023/04/20 15:43:06;;;;;;;18.93;17.53;;;7.80;99.90;;;;;;5094004;28;20245;-80
2023/04/20 15:45:33;;;;;;;19.43;18.03;;;7.80;99.90;;;;;;5094877;28;20263;-80
2023/04/20 15:48:00;;;;;;;22.60;20.50;;;7.80;99.90;;;;;;5096324;28;20194;-80
2023/04/20 15:50:27;;;;;;;22.30;20.30;;;7.80;99.90;;;;;;5093281;28;20305;-80
2023/04/20 15:52:54;;;;;;;21.10;19.30;;;7.80;99.90;;;;;;5095589;28;20214;-80
2023/04/20 15:55:21;;;;;;;20.33;18.67;;;7.70;99.90;;;;;;5095909;28;20205;-80